sensor_id;sensor_type;location;lat;lon;timestamp;P1;durP1;ratioP1;P2;durP2;ratioP2
13028;SDS011;6581;42.662;23.402;2022-11-10T00:00:45;48.67;;;35.57;;
13028;SDS011;6581;42.662;23.402;2022-11-10T00:03:31;49.57;;;36.30;;
13028;SDS011;6581;42.662;23.402;2022-11-10T00:06:18;52.23;;;38.00;;
13028;SDS011;6581;42.662;23.402;2022-11-10T00:09:04;57.23;;;39.30;;
13028;SDS011;6581;42.662;23.402;2022-11-10T00:11:50;54.40;;;38.87;;
13028;SDS011;6581;42.662;23.402;2022-11-10T00:14:35;56.37;;;40.83;;
13028;SDS011;6581;42.662;23.402;2022-11-10T00:17:38;55.77;;;40.00;;
13028;SDS011;6581;42.662;23.402;2022-11-10T00:20:24;60.33;;;41.67;;
13028;SDS011;6581;42.662;23.402;2022-11-10T00:23:12;57.90;;;39.93;;
13028;SDS011;6581;42.662;23.402;2022-11-10T00:25:57;59.47;;;40.77;;
13028;SDS011;6581;42.662;23.402;2022-11-10T00:28:49;57.60;;;40.07;;
13028;SDS011;6581;42.662;23.402;2022-11-10T00:31:36;53.20;;;38.60;;
13028;SDS011;6581;42.662;23.402;2022-11-10T00:34:22;53.27;;;38.50;;
13028;SDS011;6581;42.662;23.402;2022-11-10T00:37:08;54.40;;;38.27;;
13028;SDS011;6581;42.662;23.402;2022-11-10T00:39:55;54.13;;;39.20;;
13028;SDS011;6581;42.662;23.402;2022-11-10T00:42:41;56.33;;;39.53;;
13028;SDS011;6581;42.662;23.402;2022-11-10T00:45:26;65.33;;;43.10;;
13028;SDS011;6581;42.662;23.402;2022-11-10T00:48:12;62.03;;;43.10;;
13028;SDS011;6581;42.662;23.402;2022-11-10T00:50:58;55.70;;;38.70;;
13028;SDS011;6581;42.662;23.402;2022-11-10T00:53:44;55.03;;;38.87;;
13028;SDS011;6581;42.662;23.402;2022-11-10T00:56:31;56.37;;;39.70;;
13028;SDS011;6581;42.662;23.402;2022-11-10T00:59:23;66.37;;;48.73;;
13028;SDS011;6581;42.662;23.402;2022-11-10T01:02:09;65.60;;;44.17;;
13028;SDS011;6581;42.662;23.402;2022-11-10T01:04:54;57.57;;;39.67;;
13028;SDS011;6581;42.662;23.402;2022-11-10T01:07:40;57.97;;;40.87;;
13028;SDS011;6581;42.662;23.402;2022-11-10T01:10:25;60.77;;;41.43;;
13028;SDS011;6581;42.662;23.402;2022-11-10T01:13:13;57.50;;;40.40;;
13028;SDS011;6581;42.662;23.402;2022-11-10T01:16:02;59.27;;;40.93;;
13028;SDS011;6581;42.662;23.402;2022-11-10T01:18:48;57.57;;;42.17;;
13028;SDS011;6581;42.662;23.402;2022-11-10T01:21:34;56.20;;;40.27;;
13028;SDS011;6581;42.662;23.402;2022-11-10T01:24:20;62.43;;;43.57;;
13028;SDS011;6581;42.662;23.402;2022-11-10T01:27:06;57.33;;;41.50;;
13028;SDS011;6581;42.662;23.402;2022-11-10T01:29:53;59.57;;;41.37;;
13028;SDS011;6581;42.662;23.402;2022-11-10T01:32:39;58.97;;;42.73;;
13028;SDS011;6581;42.662;23.402;2022-11-10T01:35:25;61.60;;;42.90;;
13028;SDS011;6581;42.662;23.402;2022-11-10T01:38:11;62.53;;;43.27;;
13028;SDS011;6581;42.662;23.402;2022-11-10T01:40:57;61.97;;;43.50;;
13028;SDS011;6581;42.662;23.402;2022-11-10T01:43:43;65.53;;;43.73;;
13028;SDS011;6581;42.662;23.402;2022-11-10T01:46:30;59.43;;;43.13;;
13028;SDS011;6581;42.662;23.402;2022-11-10T01:49:18;65.70;;;45.50;;
13028;SDS011;6581;42.662;23.402;2022-11-10T01:52:07;67.53;;;43.77;;
13028;SDS011;6581;42.662;23.402;2022-11-10T01:54:55;62.17;;;43.27;;
13028;SDS011;6581;42.662;23.402;2022-11-10T01:57:41;62.67;;;44.30;;
13028;SDS011;6581;42.662;23.402;2022-11-10T02:00:27;58.60;;;42.80;;
13028;SDS011;6581;42.662;23.402;2022-11-10T02:03:15;60.20;;;43.27;;
13028;SDS011;6581;42.662;23.402;2022-11-10T02:06:07;55.43;;;42.07;;
13028;SDS011;6581;42.662;23.402;2022-11-10T02:08:54;60.50;;;42.17;;
13028;SDS011;6581;42.662;23.402;2022-11-10T02:11:41;56.00;;;40.80;;
13028;SDS011;6581;42.662;23.402;2022-11-10T02:14:29;58.47;;;42.23;;
13028;SDS011;6581;42.662;23.402;2022-11-10T02:17:15;58.63;;;40.10;;
13028;SDS011;6581;42.662;23.402;2022-11-10T02:20:03;57.27;;;42.03;;
13028;SDS011;6581;42.662;23.402;2022-11-10T02:22:52;54.27;;;40.50;;
13028;SDS011;6581;42.662;23.402;2022-11-10T02:25:37;58.70;;;40.57;;
13028;SDS011;6581;42.662;23.402;2022-11-10T02:28:23;60.90;;;42.40;;
13028;SDS011;6581;42.662;23.402;2022-11-10T02:31:10;59.90;;;42.47;;
13028;SDS011;6581;42.662;23.402;2022-11-10T02:33:55;57.50;;;40.80;;
13028;SDS011;6581;42.662;23.402;2022-11-10T02:36:41;62.77;;;43.73;;
13028;SDS011;6581;42.662;23.402;2022-11-10T02:39:36;61.87;;;43.53;;
13028;SDS011;6581;42.662;23.402;2022-11-10T02:42:22;58.57;;;42.00;;
13028;SDS011;6581;42.662;23.402;2022-11-10T02:45:32;65.87;;;43.67;;
13028;SDS011;6581;42.662;23.402;2022-11-10T02:48:17;63.00;;;44.70;;
13028;SDS011;6581;42.662;23.402;2022-11-10T02:51:04;61.70;;;43.40;;
13028;SDS011;6581;42.662;23.402;2022-11-10T02:53:49;60.30;;;43.20;;
13028;SDS011;6581;42.662;23.402;2022-11-10T02:56:36;63.53;;;44.67;;
13028;SDS011;6581;42.662;23.402;2022-11-10T02:59:22;60.23;;;44.03;;
13028;SDS011;6581;42.662;23.402;2022-11-10T03:02:08;62.30;;;44.63;;
13028;SDS011;6581;42.662;23.402;2022-11-10T03:04:54;66.33;;;44.03;;
13028;SDS011;6581;42.662;23.402;2022-11-10T03:07:40;62.80;;;43.67;;
13028;SDS011;6581;42.662;23.402;2022-11-10T03:10:26;61.00;;;44.00;;
13028;SDS011;6581;42.662;23.402;2022-11-10T03:13:40;70.17;;;46.63;;
13028;SDS011;6581;42.662;23.402;2022-11-10T03:16:25;68.77;;;47.17;;
13028;SDS011;6581;42.662;23.402;2022-11-10T03:19:11;73.30;;;48.30;;
13028;SDS011;6581;42.662;23.402;2022-11-10T03:21:57;66.47;;;46.73;;
13028;SDS011;6581;42.662;23.402;2022-11-10T03:24:42;72.30;;;47.80;;
13028;SDS011;6581;42.662;23.402;2022-11-10T03:27:28;65.73;;;45.47;;
13028;SDS011;6581;42.662;23.402;2022-11-10T03:30:16;65.03;;;43.17;;
13028;SDS011;6581;42.662;23.402;2022-11-10T03:33:01;59.30;;;43.43;;
13028;SDS011;6581;42.662;23.402;2022-11-10T03:35:47;61.43;;;43.83;;
13028;SDS011;6581;42.662;23.402;2022-11-10T03:38:33;67.33;;;45.30;;
13028;SDS011;6581;42.662;23.402;2022-11-10T03:41:19;61.13;;;40.70;;
13028;SDS011;6581;42.662;23.402;2022-11-10T03:44:05;62.43;;;43.27;;
13028;SDS011;6581;42.662;23.402;2022-11-10T03:46:52;61.97;;;43.13;;
13028;SDS011;6581;42.662;23.402;2022-11-10T03:49:38;67.00;;;45.00;;
13028;SDS011;6581;42.662;23.402;2022-11-10T03:52:24;70.17;;;46.73;;
13028;SDS011;6581;42.662;23.402;2022-11-10T03:55:10;64.97;;;44.50;;
13028;SDS011;6581;42.662;23.402;2022-11-10T03:57:59;59.33;;;42.60;;
13028;SDS011;6581;42.662;23.402;2022-11-10T04:00:46;59.80;;;41.73;;
13028;SDS011;6581;42.662;23.402;2022-11-10T04:03:33;64.10;;;42.43;;
13028;SDS011;6581;42.662;23.402;2022-11-10T04:06:19;70.53;;;48.47;;
13028;SDS011;6581;42.662;23.402;2022-11-10T04:09:22;67.83;;;46.47;;
13028;SDS011;6581;42.662;23.402;2022-11-10T04:12:08;71.27;;;46.00;;
13028;SDS011;6581;42.662;23.402;2022-11-10T04:15:12;67.37;;;46.03;;
13028;SDS011;6581;42.662;23.402;2022-11-10T04:18:15;69.50;;;46.60;;
13028;SDS011;6581;42.662;23.402;2022-11-10T04:21:10;66.43;;;44.53;;
13028;SDS011;6581;42.662;23.402;2022-11-10T04:23:56;53.53;;;37.77;;
13028;SDS011;6581;42.662;23.402;2022-11-10T04:26:42;55.10;;;39.77;;
13028;SDS011;6581;42.662;23.402;2022-11-10T04:29:28;54.43;;;39.00;;
13028;SDS011;6581;42.662;23.402;2022-11-10T04:32:14;59.63;;;40.50;;
13028;SDS011;6581;42.662;23.402;2022-11-10T04:34:59;65.53;;;42.83;;
13028;SDS011;6581;42.662;23.402;2022-11-10T04:37:46;72.23;;;49.67;;
13028;SDS011;6581;42.662;23.402;2022-11-10T04:40:31;61.87;;;42.10;;
13028;SDS011;6581;42.662;23.402;2022-11-10T04:43:18;49.37;;;35.07;;
13028;SDS011;6581;42.662;23.402;2022-11-10T04:46:04;38.37;;;27.90;;
13028;SDS011;6581;42.662;23.402;2022-11-10T04:48:51;34.80;;;26.33;;
13028;SDS011;6581;42.662;23.402;2022-11-10T04:51:38;32.70;;;25.30;;
13028;SDS011;6581;42.662;23.402;2022-11-10T04:54:26;33.93;;;25.43;;
13028;SDS011;6581;42.662;23.402;2022-11-10T04:57:11;35.17;;;25.17;;
13028;SDS011;6581;42.662;23.402;2022-11-10T04:59:57;34.07;;;25.87;;
13028;SDS011;6581;42.662;23.402;2022-11-10T05:02:43;36.17;;;25.30;;
13028;SDS011;6581;42.662;23.402;2022-11-10T05:05:29;32.57;;;24.70;;
13028;SDS011;6581;42.662;23.402;2022-11-10T05:08:15;32.63;;;24.77;;
13028;SDS011;6581;42.662;23.402;2022-11-10T05:11:02;33.30;;;24.30;;
13028;SDS011;6581;42.662;23.402;2022-11-10T05:13:48;38.03;;;28.57;;
13028;SDS011;6581;42.662;23.402;2022-11-10T05:16:34;37.77;;;27.17;;
13028;SDS011;6581;42.662;23.402;2022-11-10T05:19:20;34.43;;;24.70;;
13028;SDS011;6581;42.662;23.402;2022-11-10T05:22:06;38.60;;;26.27;;
13028;SDS011;6581;42.662;23.402;2022-11-10T05:24:51;37.73;;;27.47;;
13028;SDS011;6581;42.662;23.402;2022-11-10T05:27:38;34.90;;;26.57;;
13028;SDS011;6581;42.662;23.402;2022-11-10T05:30:24;36.37;;;25.83;;
13028;SDS011;6581;42.662;23.402;2022-11-10T05:33:10;34.33;;;25.90;;
13028;SDS011;6581;42.662;23.402;2022-11-10T05:35:56;35.37;;;25.53;;
13028;SDS011;6581;42.662;23.402;2022-11-10T05:38:42;34.23;;;25.67;;
13028;SDS011;6581;42.662;23.402;2022-11-10T05:41:27;35.43;;;26.73;;
13028;SDS011;6581;42.662;23.402;2022-11-10T05:44:14;34.13;;;25.53;;
13028;SDS011;6581;42.662;23.402;2022-11-10T05:47:00;37.17;;;26.33;;
13028;SDS011;6581;42.662;23.402;2022-11-10T05:49:46;37.80;;;26.63;;
13028;SDS011;6581;42.662;23.402;2022-11-10T05:52:32;33.27;;;24.40;;
13028;SDS011;6581;42.662;23.402;2022-11-10T05:55:19;38.37;;;24.50;;
13028;SDS011;6581;42.662;23.402;2022-11-10T05:58:06;33.53;;;23.57;;
13028;SDS011;6581;42.662;23.402;2022-11-10T06:00:54;33.00;;;23.57;;
13028;SDS011;6581;42.662;23.402;2022-11-10T06:03:40;29.30;;;23.47;;
13028;SDS011;6581;42.662;23.402;2022-11-10T06:06:26;30.67;;;23.70;;
13028;SDS011;6581;42.662;23.402;2022-11-10T06:09:11;29.60;;;23.90;;
13028;SDS011;6581;42.662;23.402;2022-11-10T06:11:57;35.20;;;23.53;;
13028;SDS011;6581;42.662;23.402;2022-11-10T06:14:42;32.87;;;24.60;;
13028;SDS011;6581;42.662;23.402;2022-11-10T06:17:30;32.80;;;23.60;;
13028;SDS011;6581;42.662;23.402;2022-11-10T06:20:15;31.33;;;23.87;;
13028;SDS011;6581;42.662;23.402;2022-11-10T06:23:02;28.93;;;22.20;;
13028;SDS011;6581;42.662;23.402;2022-11-10T06:25:49;53.87;;;37.67;;
13028;SDS011;6581;42.662;23.402;2022-11-10T06:28:35;46.00;;;35.87;;
13028;SDS011;6581;42.662;23.402;2022-11-10T06:31:28;45.83;;;34.50;;
13028;SDS011;6581;42.662;23.402;2022-11-10T06:34:16;51.10;;;37.67;;
13028;SDS011;6581;42.662;23.402;2022-11-10T06:37:02;53.00;;;38.60;;
13028;SDS011;6581;42.662;23.402;2022-11-10T06:39:47;53.20;;;40.43;;
13028;SDS011;6581;42.662;23.402;2022-11-10T06:42:33;57.47;;;42.43;;
13028;SDS011;6581;42.662;23.402;2022-11-10T06:45:19;61.13;;;42.57;;
13028;SDS011;6581;42.662;23.402;2022-11-10T06:48:06;50.50;;;37.03;;
13028;SDS011;6581;42.662;23.402;2022-11-10T06:51:00;52.77;;;36.77;;
13028;SDS011;6581;42.662;23.402;2022-11-10T06:53:46;63.23;;;37.57;;
13028;SDS011;6581;42.662;23.402;2022-11-10T06:56:32;70.10;;;40.43;;
13028;SDS011;6581;42.662;23.402;2022-11-10T06:59:18;61.53;;;39.83;;
13028;SDS011;6581;42.662;23.402;2022-11-10T07:02:03;63.87;;;41.37;;
13028;SDS011;6581;42.662;23.402;2022-11-10T07:04:49;62.07;;;40.93;;
13028;SDS011;6581;42.662;23.402;2022-11-10T07:07:36;63.57;;;41.33;;
13028;SDS011;6581;42.662;23.402;2022-11-10T07:10:22;63.90;;;41.87;;
13028;SDS011;6581;42.662;23.402;2022-11-10T07:13:08;68.50;;;42.87;;
13028;SDS011;6581;42.662;23.402;2022-11-10T07:15:54;78.27;;;47.20;;
13028;SDS011;6581;42.662;23.402;2022-11-10T07:18:40;81.37;;;54.30;;
13028;SDS011;6581;42.662;23.402;2022-11-10T07:21:26;79.80;;;56.90;;
13028;SDS011;6581;42.662;23.402;2022-11-10T07:24:14;78.17;;;54.53;;
13028;SDS011;6581;42.662;23.402;2022-11-10T07:26:59;79.73;;;58.07;;
13028;SDS011;6581;42.662;23.402;2022-11-10T07:29:45;78.43;;;51.13;;
13028;SDS011;6581;42.662;23.402;2022-11-10T07:32:30;70.70;;;47.80;;
13028;SDS011;6581;42.662;23.402;2022-11-10T07:35:16;75.03;;;48.73;;
13028;SDS011;6581;42.662;23.402;2022-11-10T07:38:04;72.40;;;47.90;;
13028;SDS011;6581;42.662;23.402;2022-11-10T07:40:53;70.13;;;46.10;;
13028;SDS011;6581;42.662;23.402;2022-11-10T07:43:39;62.63;;;42.30;;
13028;SDS011;6581;42.662;23.402;2022-11-10T07:46:24;64.77;;;42.47;;
13028;SDS011;6581;42.662;23.402;2022-11-10T07:49:10;54.33;;;38.70;;
13028;SDS011;6581;42.662;23.402;2022-11-10T07:51:56;59.40;;;38.97;;
13028;SDS011;6581;42.662;23.402;2022-11-10T07:54:42;60.40;;;40.07;;
13028;SDS011;6581;42.662;23.402;2022-11-10T07:57:29;58.90;;;40.17;;
13028;SDS011;6581;42.662;23.402;2022-11-10T08:00:15;56.37;;;39.40;;
13028;SDS011;6581;42.662;23.402;2022-11-10T08:03:02;56.53;;;39.97;;
13028;SDS011;6581;42.662;23.402;2022-11-10T08:05:48;60.57;;;38.83;;
13028;SDS011;6581;42.662;23.402;2022-11-10T08:08:34;55.13;;;37.30;;
13028;SDS011;6581;42.662;23.402;2022-11-10T08:11:20;54.30;;;39.33;;
13028;SDS011;6581;42.662;23.402;2022-11-10T08:14:07;53.07;;;39.27;;
13028;SDS011;6581;42.662;23.402;2022-11-10T08:16:53;58.03;;;40.00;;
13028;SDS011;6581;42.662;23.402;2022-11-10T08:19:39;53.10;;;39.60;;
13028;SDS011;6581;42.662;23.402;2022-11-10T08:22:25;55.70;;;41.00;;
13028;SDS011;6581;42.662;23.402;2022-11-10T08:25:10;59.20;;;42.33;;
13028;SDS011;6581;42.662;23.402;2022-11-10T08:27:57;66.67;;;42.73;;
13028;SDS011;6581;42.662;23.402;2022-11-10T08:30:45;60.13;;;43.43;;
13028;SDS011;6581;42.662;23.402;2022-11-10T08:33:33;71.97;;;48.97;;
13028;SDS011;6581;42.662;23.402;2022-11-10T08:36:19;68.73;;;48.67;;
13028;SDS011;6581;42.662;23.402;2022-11-10T08:39:05;72.23;;;53.07;;
13028;SDS011;6581;42.662;23.402;2022-11-10T08:41:51;70.60;;;51.70;;
13028;SDS011;6581;42.662;23.402;2022-11-10T08:44:36;74.57;;;52.93;;
13028;SDS011;6581;42.662;23.402;2022-11-10T08:47:24;72.90;;;48.97;;
13028;SDS011;6581;42.662;23.402;2022-11-10T08:50:09;75.87;;;50.13;;
13028;SDS011;6581;42.662;23.402;2022-11-10T08:52:55;76.10;;;52.20;;
13028;SDS011;6581;42.662;23.402;2022-11-10T08:55:41;81.73;;;52.97;;
13028;SDS011;6581;42.662;23.402;2022-11-10T08:58:28;79.93;;;51.90;;
13028;SDS011;6581;42.662;23.402;2022-11-10T09:01:14;79.60;;;53.30;;
13028;SDS011;6581;42.662;23.402;2022-11-10T09:04:01;78.07;;;54.80;;
13028;SDS011;6581;42.662;23.402;2022-11-10T09:06:47;85.27;;;54.13;;
13028;SDS011;6581;42.662;23.402;2022-11-10T09:09:33;93.77;;;55.47;;
13028;SDS011;6581;42.662;23.402;2022-11-10T09:12:18;90.45;;;55.50;;
13028;SDS011;6581;42.662;23.402;2022-11-10T09:15:05;87.83;;;54.47;;
13028;SDS011;6581;42.662;23.402;2022-11-10T09:17:52;81.80;;;53.63;;
13028;SDS011;6581;42.662;23.402;2022-11-10T09:20:39;80.13;;;52.40;;
13028;SDS011;6581;42.662;23.402;2022-11-10T09:23:26;83.05;;;52.58;;
13028;SDS011;6581;42.662;23.402;2022-11-10T09:26:12;79.57;;;52.22;;
13028;SDS011;6581;42.662;23.402;2022-11-10T09:28:58;80.85;;;54.03;;
13028;SDS011;6581;42.662;23.402;2022-11-10T09:31:43;84.45;;;54.67;;
13028;SDS011;6581;42.662;23.402;2022-11-10T09:34:29;86.28;;;55.08;;
13028;SDS011;6581;42.662;23.402;2022-11-10T09:37:16;82.80;;;54.42;;
13028;SDS011;6581;42.662;23.402;2022-11-10T09:40:02;77.35;;;53.05;;
13028;SDS011;6581;42.662;23.402;2022-11-10T09:42:48;83.60;;;53.17;;
13028;SDS011;6581;42.662;23.402;2022-11-10T09:45:38;79.70;;;52.17;;
13028;SDS011;6581;42.662;23.402;2022-11-10T09:48:28;75.15;;;52.38;;
13028;SDS011;6581;42.662;23.402;2022-11-10T09:51:16;72.07;;;50.05;;
13028;SDS011;6581;42.662;23.402;2022-11-10T09:54:11;71.03;;;47.90;;
13028;SDS011;6581;42.662;23.402;2022-11-10T09:57:12;68.82;;;48.28;;
13028;SDS011;6581;42.662;23.402;2022-11-10T10:00:01;67.38;;;49.45;;
13028;SDS011;6581;42.662;23.402;2022-11-10T10:02:49;63.28;;;47.45;;
13028;SDS011;6581;42.662;23.402;2022-11-10T10:08:58;65.47;;;45.88;;
13028;SDS011;6581;42.662;23.402;2022-11-10T10:11:58;62.40;;;45.80;;
13028;SDS011;6581;42.662;23.402;2022-11-10T10:15:07;63.03;;;44.50;;
13028;SDS011;6581;42.662;23.402;2022-11-10T10:18:09;64.47;;;46.80;;
13028;SDS011;6581;42.662;23.402;2022-11-10T10:21:11;65.97;;;45.03;;
13028;SDS011;6581;42.662;23.402;2022-11-10T10:24:10;64.45;;;47.03;;
13028;SDS011;6581;42.662;23.402;2022-11-10T10:26:59;62.70;;;45.25;;
13028;SDS011;6581;42.662;23.402;2022-11-10T10:29:49;62.40;;;45.92;;
13028;SDS011;6581;42.662;23.402;2022-11-10T10:32:34;61.95;;;45.88;;
13028;SDS011;6581;42.662;23.402;2022-11-10T10:35:19;62.40;;;46.72;;
13028;SDS011;6581;42.662;23.402;2022-11-10T10:38:08;68.15;;;47.78;;
13028;SDS011;6581;42.662;23.402;2022-11-10T10:41:00;64.25;;;47.65;;
13028;SDS011;6581;42.662;23.402;2022-11-10T10:43:57;63.60;;;46.78;;
13028;SDS011;6581;42.662;23.402;2022-11-10T10:46:45;63.08;;;45.90;;
13028;SDS011;6581;42.662;23.402;2022-11-10T10:49:32;66.93;;;46.63;;
13028;SDS011;6581;42.662;23.402;2022-11-10T10:52:20;66.05;;;46.92;;
13028;SDS011;6581;42.662;23.402;2022-11-10T10:55:30;67.40;;;45.88;;
13028;SDS011;6581;42.662;23.402;2022-11-10T10:58:19;60.00;;;45.97;;
13028;SDS011;6581;42.662;23.402;2022-11-10T11:01:17;62.92;;;45.83;;
13028;SDS011;6581;42.662;23.402;2022-11-10T11:07:19;59.80;;;44.38;;
13028;SDS011;6581;42.662;23.402;2022-11-10T11:10:16;65.45;;;46.33;;
13028;SDS011;6581;42.662;23.402;2022-11-10T11:13:12;59.95;;;45.25;;
13028;SDS011;6581;42.662;23.402;2022-11-10T11:16:00;64.10;;;46.00;;
13028;SDS011;6581;42.662;23.402;2022-11-10T11:18:48;59.92;;;45.95;;
13028;SDS011;6581;42.662;23.402;2022-11-10T11:21:36;59.70;;;44.78;;
13028;SDS011;6581;42.662;23.402;2022-11-10T11:24:33;59.00;;;42.58;;
13028;SDS011;6581;42.662;23.402;2022-11-10T11:27:25;60.40;;;43.83;;
13028;SDS011;6581;42.662;23.402;2022-11-10T11:30:20;62.20;;;43.95;;
13028;SDS011;6581;42.662;23.402;2022-11-10T11:33:15;59.92;;;42.50;;
13028;SDS011;6581;42.662;23.402;2022-11-10T11:36:15;58.33;;;42.58;;
13028;SDS011;6581;42.662;23.402;2022-11-10T11:39:14;55.38;;;41.78;;
13028;SDS011;6581;42.662;23.402;2022-11-10T11:42:10;50.05;;;39.67;;
13028;SDS011;6581;42.662;23.402;2022-11-10T11:45:14;52.78;;;40.45;;
13028;SDS011;6581;42.662;23.402;2022-11-10T11:48:09;56.97;;;40.85;;
13028;SDS011;6581;42.662;23.402;2022-11-10T11:51:10;50.90;;;40.60;;
13028;SDS011;6581;42.662;23.402;2022-11-10T11:57:15;51.33;;;38.88;;
13028;SDS011;6581;42.662;23.402;2022-11-10T12:00:12;54.38;;;39.65;;
13028;SDS011;6581;42.662;23.402;2022-11-10T12:03:19;51.38;;;39.70;;
13028;SDS011;6581;42.662;23.402;2022-11-10T12:06:33;51.38;;;38.95;;
13028;SDS011;6581;42.662;23.402;2022-11-10T12:09:29;53.22;;;38.33;;
13028;SDS011;6581;42.662;23.402;2022-11-10T12:12:31;51.35;;;39.47;;
13028;SDS011;6581;42.662;23.402;2022-11-10T12:15:31;48.58;;;38.15;;
13028;SDS011;6581;42.662;23.402;2022-11-10T12:18:28;53.67;;;39.40;;
13028;SDS011;6581;42.662;23.402;2022-11-10T12:21:21;53.58;;;40.10;;
13028;SDS011;6581;42.662;23.402;2022-11-10T12:24:13;50.10;;;38.45;;
13028;SDS011;6581;42.662;23.402;2022-11-10T12:27:29;53.63;;;39.35;;
13028;SDS011;6581;42.662;23.402;2022-11-10T12:30:17;49.80;;;38.75;;
13028;SDS011;6581;42.662;23.402;2022-11-10T12:33:04;51.58;;;39.17;;
13028;SDS011;6581;42.662;23.402;2022-11-10T12:35:59;57.15;;;38.97;;
13028;SDS011;6581;42.662;23.402;2022-11-10T12:38:50;50.47;;;39.40;;
13028;SDS011;6581;42.662;23.402;2022-11-10T12:41:41;54.95;;;40.80;;
13028;SDS011;6581;42.662;23.402;2022-11-10T12:44:32;53.53;;;40.50;;
13028;SDS011;6581;42.662;23.402;2022-11-10T12:47:24;51.38;;;39.08;;
13028;SDS011;6581;42.662;23.402;2022-11-10T12:50:23;50.83;;;40.53;;
13028;SDS011;6581;42.662;23.402;2022-11-10T12:53:19;50.80;;;39.83;;
13028;SDS011;6581;42.662;23.402;2022-11-10T12:56:08;56.28;;;39.65;;
13028;SDS011;6581;42.662;23.402;2022-11-10T13:02:26;49.58;;;38.70;;
13028;SDS011;6581;42.662;23.402;2022-11-10T13:05:23;55.75;;;40.17;;
13028;SDS011;6581;42.662;23.402;2022-11-10T13:08:20;51.42;;;39.15;;
13028;SDS011;6581;42.662;23.402;2022-11-10T13:11:20;52.80;;;39.63;;
13028;SDS011;6581;42.662;23.402;2022-11-10T13:14:18;53.22;;;39.90;;
13028;SDS011;6581;42.662;23.402;2022-11-10T13:17:08;52.78;;;39.22;;
13028;SDS011;6581;42.662;23.402;2022-11-10T13:19:55;48.90;;;38.67;;
13028;SDS011;6581;42.662;23.402;2022-11-10T13:22:43;52.80;;;38.03;;
13028;SDS011;6581;42.662;23.402;2022-11-10T13:28:57;48.13;;;37.58;;
13028;SDS011;6581;42.662;23.402;2022-11-10T13:31:51;47.85;;;38.22;;
13028;SDS011;6581;42.662;23.402;2022-11-10T13:34:41;47.97;;;37.42;;
13028;SDS011;6581;42.662;23.402;2022-11-10T13:37:47;50.40;;;37.85;;
13028;SDS011;6581;42.662;23.402;2022-11-10T13:40:35;52.08;;;38.35;;
13028;SDS011;6581;42.662;23.402;2022-11-10T13:43:25;48.38;;;37.47;;
13028;SDS011;6581;42.662;23.402;2022-11-10T13:46:12;50.42;;;38.25;;
13028;SDS011;6581;42.662;23.402;2022-11-10T13:49:09;47.70;;;36.88;;
13028;SDS011;6581;42.662;23.402;2022-11-10T13:52:21;47.63;;;37.38;;
13028;SDS011;6581;42.662;23.402;2022-11-10T13:55:21;45.00;;;36.75;;
13028;SDS011;6581;42.662;23.402;2022-11-10T13:58:22;50.20;;;36.83;;
13028;SDS011;6581;42.662;23.402;2022-11-10T14:01:21;49.30;;;36.83;;
13028;SDS011;6581;42.662;23.402;2022-11-10T14:07:26;50.00;;;36.97;;
13028;SDS011;6581;42.662;23.402;2022-11-10T14:10:14;46.08;;;36.17;;
13028;SDS011;6581;42.662;23.402;2022-11-10T14:13:03;47.35;;;36.33;;
13028;SDS011;6581;42.662;23.402;2022-11-10T14:15:56;43.13;;;35.50;;
13028;SDS011;6581;42.662;23.402;2022-11-10T14:18:48;43.67;;;35.08;;
13028;SDS011;6581;42.662;23.402;2022-11-10T14:21:39;47.83;;;36.03;;
13028;SDS011;6581;42.662;23.402;2022-11-10T14:24:32;47.38;;;36.05;;
13028;SDS011;6581;42.662;23.402;2022-11-10T14:27:23;43.97;;;35.00;;
13028;SDS011;6581;42.662;23.402;2022-11-10T14:30:18;46.75;;;35.67;;
13028;SDS011;6581;42.662;23.402;2022-11-10T14:33:08;48.92;;;36.15;;
13028;SDS011;6581;42.662;23.402;2022-11-10T14:35:57;46.10;;;35.50;;
13028;SDS011;6581;42.662;23.402;2022-11-10T14:38:45;48.20;;;37.42;;
13028;SDS011;6581;42.662;23.402;2022-11-10T14:41:35;54.63;;;38.13;;
13028;SDS011;6581;42.662;23.402;2022-11-10T14:44:21;55.50;;;40.97;;
13028;SDS011;6581;42.662;23.402;2022-11-10T14:47:12;58.30;;;39.15;;
13028;SDS011;6581;42.662;23.402;2022-11-10T14:50:03;53.90;;;38.05;;
13028;SDS011;6581;42.662;23.402;2022-11-10T14:53:00;60.33;;;38.40;;
13028;SDS011;6581;42.662;23.402;2022-11-10T14:55:50;55.50;;;38.47;;
13028;SDS011;6581;42.662;23.402;2022-11-10T14:58:39;56.63;;;38.22;;
13028;SDS011;6581;42.662;23.402;2022-11-10T15:01:27;66.35;;;37.92;;
13028;SDS011;6581;42.662;23.402;2022-11-10T15:04:16;59.85;;;39.08;;
13028;SDS011;6581;42.662;23.402;2022-11-10T15:07:04;68.95;;;39.58;;
13028;SDS011;6581;42.662;23.402;2022-11-10T15:10:06;57.72;;;37.95;;
13028;SDS011;6581;42.662;23.402;2022-11-10T15:13:00;53.20;;;38.17;;
13028;SDS011;6581;42.662;23.402;2022-11-10T15:15:50;56.47;;;38.10;;
13028;SDS011;6581;42.662;23.402;2022-11-10T15:18:37;58.28;;;38.75;;
13028;SDS011;6581;42.662;23.402;2022-11-10T15:21:26;56.05;;;38.22;;
13028;SDS011;6581;42.662;23.402;2022-11-10T15:27:29;54.33;;;37.60;;
13028;SDS011;6581;42.662;23.402;2022-11-10T15:30:19;54.30;;;38.22;;
13028;SDS011;6581;42.662;23.402;2022-11-10T15:33:09;55.50;;;37.38;;
13028;SDS011;6581;42.662;23.402;2022-11-10T15:35:55;56.92;;;38.85;;
13028;SDS011;6581;42.662;23.402;2022-11-10T15:39:02;56.08;;;38.20;;
13028;SDS011;6581;42.662;23.402;2022-11-10T15:41:50;61.47;;;39.58;;
13028;SDS011;6581;42.662;23.402;2022-11-10T15:44:43;57.70;;;38.63;;
13028;SDS011;6581;42.662;23.402;2022-11-10T15:47:29;54.10;;;39.50;;
13028;SDS011;6581;42.662;23.402;2022-11-10T15:50:17;54.20;;;38.13;;
13028;SDS011;6581;42.662;23.402;2022-11-10T15:53:03;61.60;;;41.78;;
13028;SDS011;6581;42.662;23.402;2022-11-10T15:55:50;59.63;;;40.05;;
13028;SDS011;6581;42.662;23.402;2022-11-10T15:58:36;61.30;;;40.10;;
13028;SDS011;6581;42.662;23.402;2022-11-10T16:01:22;62.55;;;40.35;;
13028;SDS011;6581;42.662;23.402;2022-11-10T16:04:08;61.63;;;41.35;;
13028;SDS011;6581;42.662;23.402;2022-11-10T16:06:55;58.05;;;41.00;;
13028;SDS011;6581;42.662;23.402;2022-11-10T16:09:41;68.38;;;43.45;;
13028;SDS011;6581;42.662;23.402;2022-11-10T16:12:27;63.25;;;43.15;;
13028;SDS011;6581;42.662;23.402;2022-11-10T16:15:14;71.07;;;41.70;;
13028;SDS011;6581;42.662;23.402;2022-11-10T16:18:04;65.35;;;45.10;;
13028;SDS011;6581;42.662;23.402;2022-11-10T16:20:54;73.65;;;45.97;;
13028;SDS011;6581;42.662;23.402;2022-11-10T16:23:42;67.82;;;43.83;;
13028;SDS011;6581;42.662;23.402;2022-11-10T16:26:27;77.05;;;45.35;;
13028;SDS011;6581;42.662;23.402;2022-11-10T16:29:14;70.57;;;44.67;;
13028;SDS011;6581;42.662;23.402;2022-11-10T16:32:03;77.53;;;48.08;;
13028;SDS011;6581;42.662;23.402;2022-11-10T16:34:48;77.07;;;44.88;;
13028;SDS011;6581;42.662;23.402;2022-11-10T16:37:34;75.82;;;47.85;;
13028;SDS011;6581;42.662;23.402;2022-11-10T16:43:33;75.68;;;49.00;;
13028;SDS011;6581;42.662;23.402;2022-11-10T16:46:20;66.78;;;47.10;;
13028;SDS011;6581;42.662;23.402;2022-11-10T16:49:14;75.82;;;48.72;;
13028;SDS011;6581;42.662;23.402;2022-11-10T16:52:34;75.10;;;47.25;;
13028;SDS011;6581;42.662;23.402;2022-11-10T16:55:20;75.53;;;46.03;;